sensor_id;sensor_type;location;lat;lon;timestamp;pressure;altitude;pressure_sealevel;temperature;humidity
77897;BME280;67092;64.282;21.056;2023-04-30T00:00:06;100401.93;;;20.78;24.14
77897;BME280;67092;64.282;21.056;2023-04-30T00:02:31;100401.79;;;20.71;24.15
77897;BME280;67092;64.282;21.056;2023-04-30T00:04:56;100403.57;;;20.55;24.23
77897;BME280;67092;64.282;21.056;2023-04-30T00:07:22;100407.59;;;20.61;24.52
77897;BME280;67092;64.282;21.056;2023-04-30T00:09:48;100410.32;;;20.92;24.53
77897;BME280;67092;64.282;21.056;2023-04-30T00:12:13;100413.37;;;21.06;24.37
77897;BME280;67092;64.282;21.056;2023-04-30T00:14:39;100408.10;;;21.17;24.01
77897;BME280;67092;64.282;21.056;2023-04-30T00:17:05;100407.81;;;21.22;24.05
77897;BME280;67092;64.282;21.056;2023-04-30T00:19:30;100408.28;;;20.62;24.39
77897;BME280;67092;64.282;21.056;2023-04-30T00:21:56;100413.75;;;20.87;24.38
77897;BME280;67092;64.282;21.056;2023-04-30T00:24:21;100415.38;;;20.65;24.78
77897;BME280;67092;64.282;21.056;2023-04-30T00:26:47;100412.65;;;21.08;24.25
77897;BME280;67092;64.282;21.056;2023-04-30T00:29:13;100414.99;;;20.96;24.30
77897;BME280;67092;64.282;21.056;2023-04-30T00:31:38;100413.60;;;21.06;24.15
77897;BME280;67092;64.282;21.056;2023-04-30T00:34:04;100411.36;;;21.06;23.96
77897;BME280;67092;64.282;21.056;2023-04-30T00:36:29;100413.31;;;20.87;24.11
77897;BME280;67092;64.282;21.056;2023-04-30T00:38:55;100416.13;;;20.97;24.28
77897;BME280;67092;64.282;21.056;2023-04-30T00:41:21;100416.82;;;20.91;24.13
77897;BME280;67092;64.282;21.056;2023-04-30T00:43:46;100422.03;;;21.01;24.28
77897;BME280;67092;64.282;21.056;2023-04-30T00:46:12;100418.63;;;20.62;24.39
77897;BME280;67092;64.282;21.056;2023-04-30T00:48:38;100417.64;;;20.79;24.43
77897;BME280;67092;64.282;21.056;2023-04-30T00:51:04;100413.48;;;20.57;24.40
77897;BME280;67092;64.282;21.056;2023-04-30T00:53:30;100408.48;;;21.12;24.18
77897;BME280;67092;64.282;21.056;2023-04-30T00:55:55;100408.90;;;20.70;24.48
77897;BME280;67092;64.282;21.056;2023-04-30T00:58:21;100411.18;;;20.57;24.40
77897;BME280;67092;64.282;21.056;2023-04-30T01:00:46;100410.28;;;20.57;24.38
77897;BME280;67092;64.282;21.056;2023-04-30T01:03:12;100412.38;;;20.42;24.55
77897;BME280;67092;64.282;21.056;2023-04-30T01:05:37;100409.00;;;20.37;24.55
77897;BME280;67092;64.282;21.056;2023-04-30T01:08:03;100406.65;;;20.30;24.15
77897;BME280;67092;64.282;21.056;2023-04-30T01:10:35;100406.80;;;20.91;24.00
77897;BME280;67092;64.282;21.056;2023-04-30T01:12:58;100413.45;;;20.95;23.94
77897;BME280;67092;64.282;21.056;2023-04-30T01:15:26;100418.84;;;20.69;24.16
77897;BME280;67092;64.282;21.056;2023-04-30T01:17:52;100420.99;;;20.94;24.21
77897;BME280;67092;64.282;21.056;2023-04-30T01:20:12;100424.87;;;21.02;24.19
77897;BME280;67092;64.282;21.056;2023-04-30T01:22:45;100427.18;;;20.65;24.24
77897;BME280;67092;64.282;21.056;2023-04-30T01:25:15;100431.58;;;20.90;24.23
77897;BME280;67092;64.282;21.056;2023-04-30T01:27:37;100433.25;;;20.42;24.41
77897;BME280;67092;64.282;21.056;2023-04-30T01:29:53;100437.61;;;20.90;23.91
77897;BME280;67092;64.282;21.056;2023-04-30T01:32:19;100442.10;;;20.76;23.95
77897;BME280;67092;64.282;21.056;2023-04-30T01:34:45;100435.78;;;21.24;23.67
77897;BME280;67092;64.282;21.056;2023-04-30T01:37:18;100439.11;;;21.02;23.68
77897;BME280;67092;64.282;21.056;2023-04-30T01:39:49;100438.62;;;20.77;24.05
77897;BME280;67092;64.282;21.056;2023-04-30T01:42:06;100438.67;;;21.12;23.69
77897;BME280;67092;64.282;21.056;2023-04-30T01:44:37;100440.03;;;20.89;23.89
77897;BME280;67092;64.282;21.056;2023-04-30T01:47:00;100437.69;;;21.00;23.74
77897;BME280;67092;64.282;21.056;2023-04-30T01:49:26;100433.62;;;20.79;23.95
77897;BME280;67092;64.282;21.056;2023-04-30T01:51:45;100432.56;;;20.69;24.03
77897;BME280;67092;64.282;21.056;2023-04-30T01:54:25;100435.27;;;20.57;24.13
77897;BME280;67092;64.282;21.056;2023-04-30T01:56:39;100432.28;;;20.81;23.88
77897;BME280;67092;64.282;21.056;2023-04-30T01:59:01;100431.03;;;20.74;23.91
77897;BME280;67092;64.282;21.056;2023-04-30T02:01:28;100429.79;;;20.68;23.95
77897;BME280;67092;64.282;21.056;2023-04-30T02:03:52;100430.20;;;19.88;24.44
77897;BME280;67092;64.282;21.056;2023-04-30T02:06:18;100429.83;;;20.69;23.89
77897;BME280;67092;64.282;21.056;2023-04-30T02:08:43;100429.26;;;20.13;24.21
77897;BME280;67092;64.282;21.056;2023-04-30T02:11:09;100427.31;;;20.61;23.97
77897;BME280;67092;64.282;21.056;2023-04-30T02:13:35;100425.47;;;21.00;23.79
77897;BME280;67092;64.282;21.056;2023-04-30T02:16:00;100423.95;;;20.63;23.66
77897;BME280;67092;64.282;21.056;2023-04-30T02:18:26;100423.25;;;20.28;23.91
77897;BME280;67092;64.282;21.056;2023-04-30T02:20:52;100421.04;;;20.82;23.89
77897;BME280;67092;64.282;21.056;2023-04-30T02:23:17;100416.10;;;21.24;23.48
77897;BME280;67092;64.282;21.056;2023-04-30T02:25:43;100407.12;;;21.19;23.31
77897;BME280;67092;64.282;21.056;2023-04-30T02:28:08;100405.70;;;21.06;23.36
77897;BME280;67092;64.282;21.056;2023-04-30T02:30:34;100410.73;;;20.83;23.57
77897;BME280;67092;64.282;21.056;2023-04-30T02:32:59;100411.31;;;20.46;23.75
77897;BME280;67092;64.282;21.056;2023-04-30T02:35:25;100411.22;;;20.69;23.51
77897;BME280;67092;64.282;21.056;2023-04-30T02:37:51;100406.36;;;20.66;23.75
77897;BME280;67092;64.282;21.056;2023-04-30T02:40:16;100404.80;;;20.64;23.78
77897;BME280;67092;64.282;21.056;2023-04-30T02:42:42;100406.96;;;20.63;23.75
77897;BME280;67092;64.282;21.056;2023-04-30T02:45:08;100406.09;;;20.52;23.91
77897;BME280;67092;64.282;21.056;2023-04-30T02:47:33;100406.21;;;20.55;23.81
77897;BME280;67092;64.282;21.056;2023-04-30T02:49:59;100404.10;;;20.41;23.94
77897;BME280;67092;64.282;21.056;2023-04-30T02:52:24;100405.67;;;20.39;23.96
77897;BME280;67092;64.282;21.056;2023-04-30T02:54:50;100403.45;;;20.64;23.93
77897;BME280;67092;64.282;21.056;2023-04-30T02:57:16;100403.59;;;20.82;23.50
77897;BME280;67092;64.282;21.056;2023-04-30T02:59:41;100405.81;;;20.96;23.69
77897;BME280;67092;64.282;21.056;2023-04-30T03:02:07;100400.81;;;21.03;23.33
77897;BME280;67092;64.282;21.056;2023-04-30T03:04:33;100402.78;;;20.58;23.52
77897;BME280;67092;64.282;21.056;2023-04-30T03:06:58;100408.17;;;20.77;23.59
77897;BME280;67092;64.282;21.056;2023-04-30T03:09:24;100406.16;;;20.32;23.72
77897;BME280;67092;64.282;21.056;2023-04-30T03:11:50;100405.03;;;21.05;23.53
77897;BME280;67092;64.282;21.056;2023-04-30T03:14:15;100401.56;;;21.27;23.32
77897;BME280;67092;64.282;21.056;2023-04-30T03:16:41;100403.79;;;20.46;23.69
77897;BME280;67092;64.282;21.056;2023-04-30T03:19:07;100400.18;;;20.62;23.78
77897;BME280;67092;64.282;21.056;2023-04-30T03:21:32;100403.25;;;20.34;23.77
77897;BME280;67092;64.282;21.056;2023-04-30T03:23:58;100403.88;;;20.57;23.80
77897;BME280;67092;64.282;21.056;2023-04-30T03:26:23;100407.95;;;20.60;23.66
77897;BME280;67092;64.282;21.056;2023-04-30T03:28:49;100408.02;;;20.49;23.82
77897;BME280;67092;64.282;21.056;2023-04-30T03:31:15;100412.56;;;20.95;23.62
77897;BME280;67092;64.282;21.056;2023-04-30T03:33:40;100410.99;;;20.45;23.85
77897;BME280;67092;64.282;21.056;2023-04-30T03:36:06;100410.84;;;19.74;24.42
77897;BME280;67092;64.282;21.056;2023-04-30T03:38:31;100411.49;;;20.09;24.30
77897;BME280;67092;64.282;21.056;2023-04-30T03:40:57;100413.87;;;20.45;23.85
77897;BME280;67092;64.282;21.056;2023-04-30T03:43:23;100414.82;;;20.68;23.63
77897;BME280;67092;64.282;21.056;2023-04-30T03:45:48;100414.32;;;20.63;23.62
77897;BME280;67092;64.282;21.056;2023-04-30T03:48:14;100408.35;;;20.96;23.30
77897;BME280;67092;64.282;21.056;2023-04-30T03:50:40;100409.80;;;21.14;23.41
77897;BME280;67092;64.282;21.056;2023-04-30T03:53:05;100410.05;;;20.87;23.37
77897;BME280;67092;64.282;21.056;2023-04-30T03:55:31;100409.75;;;20.36;23.59
77897;BME280;67092;64.282;21.056;2023-04-30T03:57:57;100410.56;;;21.09;23.31
77897;BME280;67092;64.282;21.056;2023-04-30T04:00:23;100410.02;;;20.15;23.98
77897;BME280;67092;64.282;21.056;2023-04-30T04:02:48;100412.92;;;20.34;23.81
77897;BME280;67092;64.282;21.056;2023-04-30T04:05:14;100413.59;;;20.45;23.71
77897;BME280;67092;64.282;21.056;2023-04-30T04:07:39;100413.18;;;20.09;23.77
77897;BME280;67092;64.282;21.056;2023-04-30T04:10:06;100412.46;;;20.61;23.67
77897;BME280;67092;64.282;21.056;2023-04-30T04:12:30;100412.10;;;20.51;23.81
77897;BME280;67092;64.282;21.056;2023-04-30T04:14:56;100412.61;;;20.47;23.62
77897;BME280;67092;64.282;21.056;2023-04-30T04:17:22;100413.21;;;20.66;23.47
77897;BME280;67092;64.282;21.056;2023-04-30T04:19:47;100410.67;;;20.29;23.78
77897;BME280;67092;64.282;21.056;2023-04-30T04:22:13;100409.96;;;20.82;23.54
77897;BME280;67092;64.282;21.056;2023-04-30T04:24:39;100411.00;;;20.37;23.70
77897;BME280;67092;64.282;21.056;2023-04-30T04:27:04;100412.14;;;20.40;23.67
77897;BME280;67092;64.282;21.056;2023-04-30T04:29:30;100411.78;;;20.65;23.43
77897;BME280;67092;64.282;21.056;2023-04-30T04:31:55;100407.02;;;20.77;23.35
77897;BME280;67092;64.282;21.056;2023-04-30T04:34:21;100409.15;;;19.90;23.85
77897;BME280;67092;64.282;21.056;2023-04-30T04:36:46;100409.23;;;20.28;23.73
77897;BME280;67092;64.282;21.056;2023-04-30T04:39:12;100411.25;;;20.87;23.45
77897;BME280;67092;64.282;21.056;2023-04-30T04:41:38;100410.19;;;20.70;23.47
77897;BME280;67092;64.282;21.056;2023-04-30T04:44:04;100407.39;;;20.73;23.36
77897;BME280;67092;64.282;21.056;2023-04-30T04:46:30;100403.99;;;20.31;23.51
77897;BME280;67092;64.282;21.056;2023-04-30T04:48:55;100406.01;;;20.59;23.53
77897;BME280;67092;64.282;21.056;2023-04-30T04:51:20;100406.04;;;20.46;23.61
77897;BME280;67092;64.282;21.056;2023-04-30T04:53:46;100407.76;;;20.67;23.39
77897;BME280;67092;64.282;21.056;2023-04-30T04:56:12;100406.03;;;20.51;23.57
77897;BME280;67092;64.282;21.056;2023-04-30T04:58:37;100405.81;;;20.76;23.52
77897;BME280;67092;64.282;21.056;2023-04-30T05:01:03;100402.86;;;20.08;23.92
77897;BME280;67092;64.282;21.056;2023-04-30T05:03:30;100405.76;;;20.76;23.51
77897;BME280;67092;64.282;21.056;2023-04-30T05:05:54;100405.29;;;20.45;23.35
77897;BME280;67092;64.282;21.056;2023-04-30T05:08:20;100404.40;;;20.85;23.22
77897;BME280;67092;64.282;21.056;2023-04-30T05:10:45;100404.29;;;20.48;23.56
77897;BME280;67092;64.282;21.056;2023-04-30T05:13:11;100401.80;;;20.63;23.45
77897;BME280;67092;64.282;21.056;2023-04-30T05:15:37;100399.17;;;20.59;23.70
77897;BME280;67092;64.282;21.056;2023-04-30T05:18:02;100400.02;;;20.51;23.53
77897;BME280;67092;64.282;21.056;2023-04-30T05:20:28;100396.60;;;21.20;23.16
77897;BME280;67092;64.282;21.056;2023-04-30T05:22:54;100399.07;;;20.37;23.65
77897;BME280;67092;64.282;21.056;2023-04-30T05:25:19;100401.86;;;20.55;23.44
77897;BME280;67092;64.282;21.056;2023-04-30T05:27:45;100403.11;;;20.57;23.47
77897;BME280;67092;64.282;21.056;2023-04-30T05:30:11;100402.93;;;20.29;23.76
77897;BME280;67092;64.282;21.056;2023-04-30T05:32:36;100404.63;;;20.29;23.68
77897;BME280;67092;64.282;21.056;2023-04-30T05:35:02;100405.90;;;20.48;23.74
77897;BME280;67092;64.282;21.056;2023-04-30T05:37:27;100402.40;;;20.51;23.47
77897;BME280;67092;64.282;21.056;2023-04-30T05:39:53;100402.43;;;20.36;23.61
77897;BME280;67092;64.282;21.056;2023-04-30T05:42:19;100401.37;;;20.55;23.46
77897;BME280;67092;64.282;21.056;2023-04-30T05:44:44;100400.61;;;20.27;23.46
77897;BME280;67092;64.282;21.056;2023-04-30T05:47:10;100398.83;;;20.40;23.61
77897;BME280;67092;64.282;21.056;2023-04-30T05:49:36;100396.32;;;20.24;23.79
77897;BME280;67092;64.282;21.056;2023-04-30T05:52:01;100396.97;;;20.35;23.92
77897;BME280;67092;64.282;21.056;2023-04-30T05:54:27;100395.51;;;20.05;23.96
77897;BME280;67092;64.282;21.056;2023-04-30T05:56:52;100391.81;;;20.35;23.95
77897;BME280;67092;64.282;21.056;2023-04-30T05:59:18;100390.61;;;20.21;23.84
77897;BME280;67092;64.282;21.056;2023-04-30T06:01:44;100390.14;;;20.33;23.83
77897;BME280;67092;64.282;21.056;2023-04-30T06:04:10;100392.56;;;20.25;23.71
77897;BME280;67092;64.282;21.056;2023-04-30T06:06:35;100388.57;;;20.81;23.48
77897;BME280;67092;64.282;21.056;2023-04-30T06:09:01;100386.44;;;20.35;23.63
77897;BME280;67092;64.282;21.056;2023-04-30T06:11:26;100390.19;;;20.65;23.37
77897;BME280;67092;64.282;21.056;2023-04-30T06:13:52;100387.28;;;20.65;23.32
77897;BME280;67092;64.282;21.056;2023-04-30T06:16:17;100386.56;;;20.54;23.48
77897;BME280;67092;64.282;21.056;2023-04-30T06:18:43;100385.53;;;20.67;23.42
77897;BME280;67092;64.282;21.056;2023-04-30T06:21:09;100383.99;;;20.66;23.42
77897;BME280;67092;64.282;21.056;2023-04-30T06:23:34;100381.08;;;20.43;23.64
77897;BME280;67092;64.282;21.056;2023-04-30T06:26:00;100378.82;;;20.41;23.77
77897;BME280;67092;64.282;21.056;2023-04-30T06:28:26;100377.10;;;20.41;23.73
77897;BME280;67092;64.282;21.056;2023-04-30T06:30:51;100374.78;;;20.79;23.63
77897;BME280;67092;64.282;21.056;2023-04-30T06:33:17;100370.53;;;20.70;23.67
77897;BME280;67092;64.282;21.056;2023-04-30T06:35:42;100372.02;;;20.44;23.75
77897;BME280;67092;64.282;21.056;2023-04-30T06:38:08;100367.00;;;20.66;23.48
77897;BME280;67092;64.282;21.056;2023-04-30T06:40:34;100366.85;;;20.14;23.68
77897;BME280;67092;64.282;21.056;2023-04-30T06:42:59;100363.48;;;20.66;23.67
77897;BME280;67092;64.282;21.056;2023-04-30T06:45:25;100362.58;;;20.59;23.65
77897;BME280;67092;64.282;21.056;2023-04-30T06:47:51;100362.83;;;19.94;24.02
77897;BME280;67092;64.282;21.056;2023-04-30T06:50:16;100358.72;;;20.53;23.73
77897;BME280;67092;64.282;21.056;2023-04-30T06:52:42;100358.30;;;20.14;23.87
77897;BME280;67092;64.282;21.056;2023-04-30T06:55:08;100358.49;;;20.23;23.78
77897;BME280;67092;64.282;21.056;2023-04-30T06:57:33;100356.14;;;20.17;23.89
77897;BME280;67092;64.282;21.056;2023-04-30T06:59:59;100355.74;;;20.15;23.84
77897;BME280;67092;64.282;21.056;2023-04-30T07:02:24;100356.57;;;20.26;24.01
77897;BME280;67092;64.282;21.056;2023-04-30T07:04:50;100356.41;;;20.53;23.81
77897;BME280;67092;64.282;21.056;2023-04-30T07:07:16;100349.43;;;20.65;23.71
77897;BME280;67092;64.282;21.056;2023-04-30T07:09:42;100348.18;;;20.01;23.78
77897;BME280;67092;64.282;21.056;2023-04-30T07:12:07;100349.11;;;19.94;23.83
77897;BME280;67092;64.282;21.056;2023-04-30T07:14:32;100345.63;;;20.51;23.56
77897;BME280;67092;64.282;21.056;2023-04-30T07:16:58;100346.76;;;20.31;23.50
77897;BME280;67092;64.282;21.056;2023-04-30T07:19:24;100347.02;;;20.42;23.33
77897;BME280;67092;64.282;21.056;2023-04-30T07:21:49;100348.14;;;20.18;23.76
77897;BME280;67092;64.282;21.056;2023-04-30T07:24:15;100346.79;;;20.16;23.75
77897;BME280;67092;64.282;21.056;2023-04-30T07:26:40;100341.31;;;20.37;23.55
77897;BME280;67092;64.282;21.056;2023-04-30T07:29:06;100340.53;;;20.27;23.74
77897;BME280;67092;64.282;21.056;2023-04-30T07:31:32;100339.86;;;20.06;23.91
77897;BME280;67092;64.282;21.056;2023-04-30T07:33:57;100338.67;;;20.56;23.69
77897;BME280;67092;64.282;21.056;2023-04-30T07:36:23;100340.05;;;20.04;23.72
77897;BME280;67092;64.282;21.056;2023-04-30T07:38:49;100341.29;;;20.38;23.64
77897;BME280;67092;64.282;21.056;2023-04-30T07:41:14;100336.68;;;20.58;23.43
77897;BME280;67092;64.282;21.056;2023-04-30T07:43:40;100333.85;;;20.68;23.43
77897;BME280;67092;64.282;21.056;2023-04-30T07:46:05;100335.08;;;20.58;23.46
77897;BME280;67092;64.282;21.056;2023-04-30T07:48:31;100332.05;;;20.38;23.89
77897;BME280;67092;64.282;21.056;2023-04-30T07:50:57;100341.33;;;20.44;23.82
77897;BME280;67092;64.282;21.056;2023-04-30T07:53:22;100334.77;;;20.44;23.65
77897;BME280;67092;64.282;21.056;2023-04-30T07:55:48;100331.17;;;20.56;23.61
77897;BME280;67092;64.282;21.056;2023-04-30T07:58:14;100335.71;;;20.07;23.95
77897;BME280;67092;64.282;21.056;2023-04-30T08:00:39;100334.58;;;20.35;23.64
77897;BME280;67092;64.282;21.056;2023-04-30T08:03:05;100336.76;;;20.34;23.73
77897;BME280;67092;64.282;21.056;2023-04-30T08:05:30;100331.02;;;20.31;23.70
77897;BME280;67092;64.282;21.056;2023-04-30T08:07:56;100336.80;;;20.22;23.80
77897;BME280;67092;64.282;21.056;2023-04-30T08:10:22;100335.66;;;20.26;23.95
77897;BME280;67092;64.282;21.056;2023-04-30T08:12:47;100337.44;;;20.23;24.17
77897;BME280;67092;64.282;21.056;2023-04-30T08:15:13;100336.50;;;20.27;23.99
77897;BME280;67092;64.282;21.056;2023-04-30T08:17:39;100332.79;;;20.14;24.19
77897;BME280;67092;64.282;21.056;2023-04-30T08:20:05;100335.23;;;20.47;23.82
77897;BME280;67092;64.282;21.056;2023-04-30T08:22:30;100334.14;;;20.19;23.86
77897;BME280;67092;64.282;21.056;2023-04-30T08:24:55;100332.75;;;20.40;23.68
77897;BME280;67092;64.282;21.056;2023-04-30T08:27:21;100333.17;;;20.69;23.58
77897;BME280;67092;64.282;21.056;2023-04-30T08:29:47;100338.86;;;20.30;23.96
77897;BME280;67092;64.282;21.056;2023-04-30T08:32:12;100330.44;;;20.21;23.99
77897;BME280;67092;64.282;21.056;2023-04-30T08:34:38;100333.30;;;20.62;23.58
77897;BME280;67092;64.282;21.056;2023-04-30T08:37:04;100330.69;;;20.36;23.97
77897;BME280;67092;64.282;21.056;2023-04-30T08:39:29;100333.67;;;19.94;23.93
77897;BME280;67092;64.282;21.056;2023-04-30T08:41:55;100333.01;;;20.45;23.88
77897;BME280;67092;64.282;21.056;2023-04-30T08:44:21;100327.99;;;20.01;24.29
77897;BME280;67092;64.282;21.056;2023-04-30T08:46:47;100329.70;;;20.31;24.02
77897;BME280;67092;64.282;21.056;2023-04-30T08:49:12;100329.61;;;20.08;24.07
77897;BME280;67092;64.282;21.056;2023-04-30T08:51:37;100327.42;;;20.36;24.06
77897;BME280;67092;64.282;21.056;2023-04-30T08:54:03;100324.72;;;20.33;24.08
77897;BME280;67092;64.282;21.056;2023-04-30T08:56:29;100322.58;;;20.51;24.01
77897;BME280;67092;64.282;21.056;2023-04-30T08:58:54;100323.08;;;20.34;24.92
77897;BME280;67092;64.282;21.056;2023-04-30T09:01:20;100322.88;;;20.27;24.95
77897;BME280;67092;64.282;21.056;2023-04-30T09:03:45;100315.43;;;20.71;24.54
77897;BME280;67092;64.282;21.056;2023-04-30T09:06:15;100314.91;;;20.56;24.48
77897;BME280;67092;64.282;21.056;2023-04-30T09:08:41;100321.87;;;20.40;24.56
77897;BME280;67092;64.282;21.056;2023-04-30T09:11:02;100321.52;;;20.53;24.44
77897;BME280;67092;64.282;21.056;2023-04-30T09:15:54;100317.07;;;20.43;24.48
77897;BME280;67092;64.282;21.056;2023-04-30T09:18:19;100316.75;;;20.58;24.32
77897;BME280;67092;64.282;21.056;2023-04-30T09:20:54;100315.79;;;21.05;24.12
77897;BME280;67092;64.282;21.056;2023-04-30T09:23:10;100316.68;;;20.55;24.34
77897;BME280;67092;64.282;21.056;2023-04-30T09:25:40;100314.32;;;20.80;24.09
77897;BME280;67092;64.282;21.056;2023-04-30T09:28:08;100313.01;;;20.57;24.33
77897;BME280;67092;64.282;21.056;2023-04-30T09:30:30;100315.99;;;20.50;24.44
77897;BME280;67092;64.282;21.056;2023-04-30T09:32:54;100311.96;;;20.68;24.27
77897;BME280;67092;64.282;21.056;2023-04-30T09:35:29;100315.15;;;20.65;23.95
77897;BME280;67092;64.282;21.056;2023-04-30T09:37:44;100315.93;;;20.83;24.04
77897;BME280;67092;64.282;21.056;2023-04-30T09:40:10;100319.11;;;20.74;24.13
77897;BME280;67092;64.282;21.056;2023-04-30T09:42:35;100318.67;;;20.01;24.58
77897;BME280;67092;64.282;21.056;2023-04-30T09:45:04;100318.11;;;20.05;24.54
77897;BME280;67092;64.282;21.056;2023-04-30T09:47:29;100314.88;;;20.52;24.57
77897;BME280;67092;64.282;21.056;2023-04-30T09:49:52;100315.43;;;21.14;24.26
77897;BME280;67092;64.282;21.056;2023-04-30T09:52:19;100320.28;;;20.80;24.45
77897;BME280;67092;64.282;21.056;2023-04-30T09:54:44;100318.69;;;20.51;24.86
77897;BME280;67092;64.282;21.056;2023-04-30T09:57:10;100316.88;;;20.59;25.17
77897;BME280;67092;64.282;21.056;2023-04-30T09:59:35;100318.30;;;20.13;25.28
77897;BME280;67092;64.282;21.056;2023-04-30T10:02:01;100314.84;;;20.94;25.05
77897;BME280;67092;64.282;21.056;2023-04-30T10:04:28;100313.13;;;20.67;24.87
77897;BME280;67092;64.282;21.056;2023-04-30T10:06:54;100315.30;;;20.77;24.96
77897;BME280;67092;64.282;21.056;2023-04-30T10:09:17;100316.15;;;20.44;25.35
77897;BME280;67092;64.282;21.056;2023-04-30T10:11:44;100314.49;;;20.62;25.16
77897;BME280;67092;64.282;21.056;2023-04-30T10:14:11;100312.10;;;20.66;25.16
77897;BME280;67092;64.282;21.056;2023-04-30T10:16:41;100312.69;;;20.23;25.55
77897;BME280;67092;64.282;21.056;2023-04-30T10:19:04;100308.30;;;20.61;25.33
77897;BME280;67092;64.282;21.056;2023-04-30T10:21:26;100312.23;;;20.61;25.31
77897;BME280;67092;64.282;21.056;2023-04-30T10:23:52;100310.50;;;20.39;25.36
77897;BME280;67092;64.282;21.056;2023-04-30T10:26:17;100310.24;;;20.29;25.48
77897;BME280;67092;64.282;21.056;2023-04-30T10:28:42;100311.65;;;20.81;25.25
77897;BME280;67092;64.282;21.056;2023-04-30T10:31:09;100309.47;;;20.98;25.32
77897;BME280;67092;64.282;21.056;2023-04-30T10:33:40;100307.12;;;20.78;25.44
77897;BME280;67092;64.282;21.056;2023-04-30T10:36:02;100303.28;;;21.08;25.02
77897;BME280;67092;64.282;21.056;2023-04-30T10:38:27;100299.41;;;20.69;25.39
77897;BME280;67092;64.282;21.056;2023-04-30T10:40:53;100300.05;;;20.72;25.34
77897;BME280;67092;64.282;21.056;2023-04-30T10:43:17;100304.31;;;20.52;25.29
77897;BME280;67092;64.282;21.056;2023-04-30T10:45:43;100308.23;;;20.42;25.38
77897;BME280;67092;64.282;21.056;2023-04-30T10:48:07;100306.62;;;20.70;25.30
77897;BME280;67092;64.282;21.056;2023-04-30T10:50:38;100309.91;;;20.49;25.27
77897;BME280;67092;64.282;21.056;2023-04-30T10:53:02;100307.66;;;20.40;25.59
77897;BME280;67092;64.282;21.056;2023-04-30T10:55:24;100294.78;;;20.59;25.37
77897;BME280;67092;64.282;21.056;2023-04-30T10:57:49;100304.95;;;20.90;25.03
77897;BME280;67092;64.282;21.056;2023-04-30T11:00:19;100300.66;;;20.44;25.19
77897;BME280;67092;64.282;21.056;2023-04-30T11:02:42;100300.39;;;20.87;25.03
77897;BME280;67092;64.282;21.056;2023-04-30T11:05:11;100304.21;;;20.70;24.98
77897;BME280;67092;64.282;21.056;2023-04-30T11:07:32;100300.23;;;20.50;25.15
77897;BME280;67092;64.282;21.056;2023-04-30T11:09:59;100300.59;;;21.09;25.10
77897;BME280;67092;64.282;21.056;2023-04-30T11:12:26;100298.45;;;20.64;25.29
77897;BME280;67092;64.282;21.056;2023-04-30T11:14:49;100300.85;;;20.55;25.28
77897;BME280;67092;64.282;21.056;2023-04-30T11:17:20;100301.54;;;20.58;25.08
77897;BME280;67092;64.282;21.056;2023-04-30T11:19:47;100309.59;;;20.50;25.12
77897;BME280;67092;64.282;21.056;2023-04-30T11:22:17;100309.41;;;21.05;24.85
77897;BME280;67092;64.282;21.056;2023-04-30T11:27:03;100302.91;;;21.19;24.74
77897;BME280;67092;64.282;21.056;2023-04-30T11:29:23;100312.53;;;21.05;24.63
77897;BME280;67092;64.282;21.056;2023-04-30T11:31:48;100310.54;;;20.83;24.84
77897;BME280;67092;64.282;21.056;2023-04-30T11:34:14;100307.07;;;20.73;24.97
77897;BME280;67092;64.282;21.056;2023-04-30T11:36:39;100307.17;;;20.76;24.96
77897;BME280;67092;64.282;21.056;2023-04-30T11:39:05;100311.79;;;20.44;25.29
77897;BME280;67092;64.282;21.056;2023-04-30T11:41:30;100313.88;;;20.67;25.33
77897;BME280;67092;64.282;21.056;2023-04-30T11:43:56;100318.02;;;21.01;25.01
77897;BME280;67092;64.282;21.056;2023-04-30T11:46:22;100317.99;;;20.65;25.17
77897;BME280;67092;64.282;21.056;2023-04-30T11:48:47;100316.06;;;20.71;25.13
77897;BME280;67092;64.282;21.056;2023-04-30T11:51:14;100315.56;;;20.81;25.27
77897;BME280;67092;64.282;21.056;2023-04-30T11:53:39;100317.22;;;20.64;25.47
77897;BME280;67092;64.282;21.056;2023-04-30T11:56:05;100315.92;;;21.03;25.35
77897;BME280;67092;64.282;21.056;2023-04-30T11:58:33;100316.75;;;20.88;25.31
77897;BME280;67092;64.282;21.056;2023-04-30T12:00:59;100321.71;;;21.04;25.08
77897;BME280;67092;64.282;21.056;2023-04-30T12:03:21;100323.00;;;20.66;25.23
77897;BME280;67092;64.282;21.056;2023-04-30T12:05:47;100321.21;;;20.55;25.32
77897;BME280;67092;64.282;21.056;2023-04-30T12:08:12;100322.02;;;20.87;25.29
77897;BME280;67092;64.282;21.056;2023-04-30T12:10:38;100323.02;;;20.76;25.19
77897;BME280;67092;64.282;21.056;2023-04-30T12:13:03;100325.33;;;20.83;25.32
77897;BME280;67092;64.282;21.056;2023-04-30T12:15:29;100328.48;;;20.96;24.97
77897;BME280;67092;64.282;21.056;2023-04-30T12:17:56;100328.19;;;20.97;25.20
77897;BME280;67092;64.282;21.056;2023-04-30T12:20:22;100326.99;;;20.55;25.36
77897;BME280;67092;64.282;21.056;2023-04-30T12:22:47;100332.44;;;20.63;25.32
77897;BME280;67092;64.282;21.056;2023-04-30T12:25:13;100333.42;;;20.93;25.03
77897;BME280;67092;64.282;21.056;2023-04-30T12:27:37;100332.83;;;20.77;25.18
77897;BME280;67092;64.282;21.056;2023-04-30T12:30:06;100336.22;;;21.02;24.95
77897;BME280;67092;64.282;21.056;2023-04-30T12:32:28;100335.56;;;20.98;25.23
77897;BME280;67092;64.282;21.056;2023-04-30T12:34:57;100337.56;;;20.86;25.13